sensor_id;sensor_type;location;lat;lon;timestamp;P1;durP1;ratioP1;P2;durP2;ratioP2
21901;SDS011;11115;46.038;14.612;2022-09-09T00:00:24;5.05;;;2.75;;
21901;SDS011;11115;46.038;14.612;2022-09-09T00:03:23;4.07;;;2.85;;
21901;SDS011;11115;46.038;14.612;2022-09-09T00:06:19;6.90;;;3.00;;
21901;SDS011;11115;46.038;14.612;2022-09-09T00:12:02;4.22;;;2.78;;
21901;SDS011;11115;46.038;14.612;2022-09-09T00:17:57;3.53;;;2.45;;
21901;SDS011;11115;46.038;14.612;2022-09-09T00:20:40;6.10;;;3.42;;
21901;SDS011;11115;46.038;14.612;2022-09-09T00:23:40;9.60;;;3.88;;
21901;SDS011;11115;46.038;14.612;2022-09-09T00:29:27;5.97;;;3.00;;
21901;SDS011;11115;46.038;14.612;2022-09-09T00:32:27;5.78;;;3.15;;
21901;SDS011;11115;46.038;14.612;2022-09-09T00:35:14;4.15;;;3.05;;
21901;SDS011;11115;46.038;14.612;2022-09-09T00:37:54;5.35;;;2.63;;
21901;SDS011;11115;46.038;14.612;2022-09-09T00:40:34;5.75;;;3.38;;
21901;SDS011;11115;46.038;14.612;2022-09-09T00:43:32;6.20;;;2.45;;
21901;SDS011;11115;46.038;14.612;2022-09-09T00:56:16;7.15;;;3.10;;
21901;SDS011;11115;46.038;14.612;2022-09-09T00:58:58;3.28;;;2.53;;
21901;SDS011;11115;46.038;14.612;2022-09-09T01:01:45;4.70;;;2.53;;
21901;SDS011;11115;46.038;14.612;2022-09-09T01:04:21;3.75;;;2.97;;
21901;SDS011;11115;46.038;14.612;2022-09-09T01:07:19;3.88;;;2.55;;
21901;SDS011;11115;46.038;14.612;2022-09-09T01:10:11;4.25;;;3.17;;
21901;SDS011;11115;46.038;14.612;2022-09-09T01:12:58;5.25;;;2.90;;
21901;SDS011;11115;46.038;14.612;2022-09-09T01:15:45;10.07;;;3.33;;
21901;SDS011;11115;46.038;14.612;2022-09-09T01:18:51;3.85;;;2.47;;
21901;SDS011;11115;46.038;14.612;2022-09-09T01:25:01;3.22;;;2.20;;
21901;SDS011;11115;46.038;14.612;2022-09-09T01:28:24;9.45;;;2.85;;
21901;SDS011;11115;46.038;14.612;2022-09-09T01:31:06;4.10;;;2.70;;
21901;SDS011;11115;46.038;14.612;2022-09-09T01:33:47;4.25;;;2.63;;
21901;SDS011;11115;46.038;14.612;2022-09-09T01:36:37;4.73;;;2.23;;
21901;SDS011;11115;46.038;14.612;2022-09-09T01:39:28;11.53;;;3.27;;
21901;SDS011;11115;46.038;14.612;2022-09-09T01:42:09;4.10;;;2.13;;
21901;SDS011;11115;46.038;14.612;2022-09-09T01:44:41;4.75;;;2.47;;
21901;SDS011;11115;46.038;14.612;2022-09-09T01:47:27;3.13;;;1.88;;
21901;SDS011;11115;46.038;14.612;2022-09-09T01:50:19;4.37;;;2.53;;
21901;SDS011;11115;46.038;14.612;2022-09-09T01:52:53;5.18;;;2.95;;
21901;SDS011;11115;46.038;14.612;2022-09-09T01:55:37;2.80;;;2.37;;
21901;SDS011;11115;46.038;14.612;2022-09-09T02:04:49;5.07;;;2.47;;
21901;SDS011;11115;46.038;14.612;2022-09-09T02:07:47;4.87;;;2.97;;
21901;SDS011;11115;46.038;14.612;2022-09-09T02:10:32;4.05;;;2.80;;
21901;SDS011;11115;46.038;14.612;2022-09-09T02:13:16;5.38;;;3.10;;
21901;SDS011;11115;46.038;14.612;2022-09-09T02:19:17;3.50;;;2.15;;
21901;SDS011;11115;46.038;14.612;2022-09-09T02:22:43;4.13;;;2.70;;
21901;SDS011;11115;46.038;14.612;2022-09-09T02:25:22;3.78;;;2.50;;
21901;SDS011;11115;46.038;14.612;2022-09-09T02:28:12;3.92;;;2.42;;
21901;SDS011;11115;46.038;14.612;2022-09-09T02:30:47;3.15;;;1.73;;
21901;SDS011;11115;46.038;14.612;2022-09-09T02:33:36;3.97;;;2.50;;
21901;SDS011;11115;46.038;14.612;2022-09-09T02:36:13;2.95;;;2.08;;
21901;SDS011;11115;46.038;14.612;2022-09-09T02:39:04;2.30;;;1.65;;
21901;SDS011;11115;46.038;14.612;2022-09-09T02:41:43;4.70;;;2.40;;
21901;SDS011;11115;46.038;14.612;2022-09-09T02:44:32;1.95;;;1.73;;
21901;SDS011;11115;46.038;14.612;2022-09-09T02:50:52;4.15;;;1.92;;
21901;SDS011;11115;46.038;14.612;2022-09-09T02:53:39;2.58;;;1.77;;
21901;SDS011;11115;46.038;14.612;2022-09-09T02:56:29;2.80;;;1.52;;
21901;SDS011;11115;46.038;14.612;2022-09-09T02:59:15;3.75;;;2.03;;
21901;SDS011;11115;46.038;14.612;2022-09-09T03:01:45;2.85;;;1.98;;
21901;SDS011;11115;46.038;14.612;2022-09-09T03:04:19;2.92;;;1.83;;
21901;SDS011;11115;46.038;14.612;2022-09-09T03:06:51;2.15;;;1.92;;
21901;SDS011;11115;46.038;14.612;2022-09-09T03:09:22;2.53;;;1.80;;
21901;SDS011;11115;46.038;14.612;2022-09-09T03:14:33;2.10;;;1.73;;
21901;SDS011;11115;46.038;14.612;2022-09-09T03:17:11;1.58;;;1.35;;
21901;SDS011;11115;46.038;14.612;2022-09-09T03:19:51;1.90;;;1.10;;
21901;SDS011;11115;46.038;14.612;2022-09-09T03:22:26;2.47;;;1.70;;
21901;SDS011;11115;46.038;14.612;2022-09-09T03:25:04;2.37;;;1.43;;
21901;SDS011;11115;46.038;14.612;2022-09-09T03:27:48;1.50;;;1.40;;
21901;SDS011;11115;46.038;14.612;2022-09-09T03:30:25;3.57;;;1.40;;
21901;SDS011;11115;46.038;14.612;2022-09-09T03:33:04;3.70;;;1.53;;
21901;SDS011;11115;46.038;14.612;2022-09-09T03:35:33;1.60;;;1.50;;
21901;SDS011;11115;46.038;14.612;2022-09-09T03:38:07;2.37;;;1.43;;
21901;SDS011;11115;46.038;14.612;2022-09-09T03:40:52;1.83;;;1.10;;
21901;SDS011;11115;46.038;14.612;2022-09-09T03:43:29;3.03;;;0.95;;
21901;SDS011;11115;46.038;14.612;2022-09-09T03:46:04;2.75;;;1.20;;
21901;SDS011;11115;46.038;14.612;2022-09-09T03:48:42;1.88;;;1.35;;
21901;SDS011;11115;46.038;14.612;2022-09-09T03:51:18;1.20;;;1.10;;
21901;SDS011;11115;46.038;14.612;2022-09-09T03:53:54;3.22;;;1.17;;
21901;SDS011;11115;46.038;14.612;2022-09-09T03:56:28;1.75;;;0.90;;
21901;SDS011;11115;46.038;14.612;2022-09-09T03:58:59;1.33;;;1.05;;
21901;SDS011;11115;46.038;14.612;2022-09-09T04:01:32;1.67;;;1.05;;
21901;SDS011;11115;46.038;14.612;2022-09-09T04:04:10;1.60;;;1.30;;
21901;SDS011;11115;46.038;14.612;2022-09-09T04:06:50;1.33;;;0.83;;
21901;SDS011;11115;46.038;14.612;2022-09-09T04:09:28;1.52;;;1.25;;
21901;SDS011;11115;46.038;14.612;2022-09-09T04:12:04;1.77;;;0.98;;
21901;SDS011;11115;46.038;14.612;2022-09-09T04:14:37;0.70;;;0.70;;
21901;SDS011;11115;46.038;14.612;2022-09-09T04:17:11;2.40;;;1.08;;
21901;SDS011;11115;46.038;14.612;2022-09-09T04:19:43;1.30;;;0.80;;
21901;SDS011;11115;46.038;14.612;2022-09-09T04:22:21;1.15;;;0.75;;
21901;SDS011;11115;46.038;14.612;2022-09-09T04:24:55;1.13;;;0.73;;
21901;SDS011;11115;46.038;14.612;2022-09-09T04:27:26;1.45;;;1.20;;
21901;SDS011;11115;46.038;14.612;2022-09-09T04:29:58;1.45;;;1.20;;
21901;SDS011;11115;46.038;14.612;2022-09-09T04:32:35;0.73;;;0.70;;
21901;SDS011;11115;46.038;14.612;2022-09-09T04:35:14;1.55;;;0.90;;
21901;SDS011;11115;46.038;14.612;2022-09-09T04:37:51;2.13;;;0.93;;
21901;SDS011;11115;46.038;14.612;2022-09-09T04:40:22;0.93;;;0.77;;
21901;SDS011;11115;46.038;14.612;2022-09-09T04:42:58;1.00;;;0.88;;
21901;SDS011;11115;46.038;14.612;2022-09-09T04:45:49;0.68;;;0.68;;
21901;SDS011;11115;46.038;14.612;2022-09-09T04:48:30;0.70;;;0.70;;
21901;SDS011;11115;46.038;14.612;2022-09-09T04:51:11;1.08;;;0.68;;
21901;SDS011;11115;46.038;14.612;2022-09-09T04:53:43;1.35;;;0.85;;
21901;SDS011;11115;46.038;14.612;2022-09-09T04:56:17;0.60;;;0.60;;
21901;SDS011;11115;46.038;14.612;2022-09-09T04:58:56;1.33;;;0.93;;
21901;SDS011;11115;46.038;14.612;2022-09-09T05:01:39;0.70;;;0.70;;
21901;SDS011;11115;46.038;14.612;2022-09-09T05:04:11;0.60;;;0.60;;
21901;SDS011;11115;46.038;14.612;2022-09-09T05:06:48;0.70;;;0.70;;
21901;SDS011;11115;46.038;14.612;2022-09-09T05:09:36;2.25;;;0.68;;
21901;SDS011;11115;46.038;14.612;2022-09-09T05:12:07;1.47;;;0.80;;
21901;SDS011;11115;46.038;14.612;2022-09-09T05:14:48;0.93;;;0.65;;
21901;SDS011;11115;46.038;14.612;2022-09-09T05:17:29;0.63;;;0.63;;
21901;SDS011;11115;46.038;14.612;2022-09-09T05:20:05;1.00;;;0.90;;
21901;SDS011;11115;46.038;14.612;2022-09-09T05:22:38;0.77;;;0.52;;
21901;SDS011;11115;46.038;14.612;2022-09-09T05:25:09;1.02;;;0.93;;
21901;SDS011;11115;46.038;14.612;2022-09-09T05:27:40;0.60;;;0.60;;
21901;SDS011;11115;46.038;14.612;2022-09-09T05:30:09;1.30;;;0.85;;
21901;SDS011;11115;46.038;14.612;2022-09-09T05:32:43;0.47;;;0.43;;
21901;SDS011;11115;46.038;14.612;2022-09-09T05:35:16;0.77;;;0.77;;
21901;SDS011;11115;46.038;14.612;2022-09-09T05:37:48;1.58;;;1.15;;
21901;SDS011;11115;46.038;14.612;2022-09-09T05:40:31;1.15;;;0.98;;
21901;SDS011;11115;46.038;14.612;2022-09-09T05:43:06;1.00;;;0.90;;
21901;SDS011;11115;46.038;14.612;2022-09-09T05:45:44;2.45;;;1.23;;
21901;SDS011;11115;46.038;14.612;2022-09-09T05:48:22;1.58;;;1.30;;
21901;SDS011;11115;46.038;14.612;2022-09-09T05:50:55;2.63;;;1.90;;
21901;SDS011;11115;46.038;14.612;2022-09-09T05:53:26;2.05;;;1.23;;
21901;SDS011;11115;46.038;14.612;2022-09-09T05:56:06;2.63;;;1.10;;
21901;SDS011;11115;46.038;14.612;2022-09-09T05:58:48;1.85;;;1.40;;
21901;SDS011;11115;46.038;14.612;2022-09-09T06:01:25;3.30;;;1.35;;
21901;SDS011;11115;46.038;14.612;2022-09-09T06:04:03;2.67;;;1.10;;
21901;SDS011;11115;46.038;14.612;2022-09-09T06:06:39;3.38;;;1.30;;
21901;SDS011;11115;46.038;14.612;2022-09-09T06:09:24;1.48;;;1.00;;
21901;SDS011;11115;46.038;14.612;2022-09-09T06:12:01;2.35;;;1.20;;
21901;SDS011;11115;46.038;14.612;2022-09-09T06:14:35;1.60;;;0.88;;
21901;SDS011;11115;46.038;14.612;2022-09-09T06:17:14;1.85;;;1.40;;
21901;SDS011;11115;46.038;14.612;2022-09-09T06:19:51;1.40;;;1.17;;
21901;SDS011;11115;46.038;14.612;2022-09-09T06:22:24;1.75;;;1.15;;
21901;SDS011;11115;46.038;14.612;2022-09-09T06:25:04;1.25;;;1.05;;
21901;SDS011;11115;46.038;14.612;2022-09-09T06:27:36;2.15;;;1.33;;
21901;SDS011;11115;46.038;14.612;2022-09-09T06:30:10;3.38;;;1.00;;
21901;SDS011;11115;46.038;14.612;2022-09-09T06:32:50;1.77;;;1.60;;
21901;SDS011;11115;46.038;14.612;2022-09-09T06:35:34;1.67;;;1.20;;
21901;SDS011;11115;46.038;14.612;2022-09-09T06:38:09;1.23;;;1.13;;
21901;SDS011;11115;46.038;14.612;2022-09-09T06:40:53;1.20;;;1.00;;
21901;SDS011;11115;46.038;14.612;2022-09-09T06:43:31;2.13;;;1.25;;
21901;SDS011;11115;46.038;14.612;2022-09-09T06:46:12;0.85;;;0.85;;
21901;SDS011;11115;46.038;14.612;2022-09-09T06:51:29;0.75;;;0.75;;
21901;SDS011;11115;46.038;14.612;2022-09-09T06:54:03;1.02;;;1.00;;
21901;SDS011;11115;46.038;14.612;2022-09-09T06:56:44;2.17;;;1.33;;
21901;SDS011;11115;46.038;14.612;2022-09-09T06:59:21;2.53;;;1.98;;
21901;SDS011;11115;46.038;14.612;2022-09-09T07:01:55;1.23;;;1.13;;
21901;SDS011;11115;46.038;14.612;2022-09-09T07:04:26;3.90;;;1.50;;
21901;SDS011;11115;46.038;14.612;2022-09-09T07:07:05;3.15;;;1.17;;
21901;SDS011;11115;46.038;14.612;2022-09-09T07:09:46;6.93;;;1.60;;
21901;SDS011;11115;46.038;14.612;2022-09-09T07:12:29;9.30;;;1.40;;
21901;SDS011;11115;46.038;14.612;2022-09-09T07:15:01;1.63;;;1.17;;
21901;SDS011;11115;46.038;14.612;2022-09-09T07:17:32;1.08;;;0.98;;
21901;SDS011;11115;46.038;14.612;2022-09-09T07:20:04;2.13;;;1.25;;
21901;SDS011;11115;46.038;14.612;2022-09-09T07:22:37;0.60;;;0.60;;
21901;SDS011;11115;46.038;14.612;2022-09-09T07:25:08;4.07;;;1.73;;
21901;SDS011;11115;46.038;14.612;2022-09-09T07:27:46;1.08;;;0.98;;
21901;SDS011;11115;46.038;14.612;2022-09-09T07:30:22;1.30;;;1.20;;
21901;SDS011;11115;46.038;14.612;2022-09-09T07:32:55;0.80;;;0.60;;
21901;SDS011;11115;46.038;14.612;2022-09-09T07:35:35;0.70;;;0.68;;
21901;SDS011;11115;46.038;14.612;2022-09-09T07:38:10;0.77;;;0.75;;
21901;SDS011;11115;46.038;14.612;2022-09-09T07:40:49;1.40;;;0.90;;
21901;SDS011;11115;46.038;14.612;2022-09-09T07:43:19;1.17;;;1.08;;
21901;SDS011;11115;46.038;14.612;2022-09-09T07:46:02;0.80;;;0.80;;
21901;SDS011;11115;46.038;14.612;2022-09-09T07:48:35;1.92;;;1.10;;
21901;SDS011;11115;46.038;14.612;2022-09-09T07:51:10;0.70;;;0.52;;
21901;SDS011;11115;46.038;14.612;2022-09-09T07:53:58;1.90;;;0.77;;
21901;SDS011;11115;46.038;14.612;2022-09-09T07:56:41;0.82;;;0.77;;
21901;SDS011;11115;46.038;14.612;2022-09-09T07:59:23;0.73;;;0.73;;
21901;SDS011;11115;46.038;14.612;2022-09-09T08:02:03;1.00;;;0.90;;
21901;SDS011;11115;46.038;14.612;2022-09-09T08:04:37;1.70;;;0.90;;
21901;SDS011;11115;46.038;14.612;2022-09-09T08:07:13;0.70;;;0.70;;
21901;SDS011;11115;46.038;14.612;2022-09-09T08:09:50;0.93;;;0.52;;
21901;SDS011;11115;46.038;14.612;2022-09-09T08:12:31;0.63;;;0.50;;
21901;SDS011;11115;46.038;14.612;2022-09-09T08:15:10;0.30;;;0.30;;
21901;SDS011;11115;46.038;14.612;2022-09-09T08:17:40;2.53;;;0.63;;
21901;SDS011;11115;46.038;14.612;2022-09-09T08:20:16;0.77;;;0.45;;
21901;SDS011;11115;46.038;14.612;2022-09-09T08:22:48;1.10;;;0.80;;
21901;SDS011;11115;46.038;14.612;2022-09-09T08:25:28;1.20;;;0.63;;
21901;SDS011;11115;46.038;14.612;2022-09-09T08:28:02;0.45;;;0.45;;
21901;SDS011;11115;46.038;14.612;2022-09-09T08:30:45;0.57;;;0.57;;
21901;SDS011;11115;46.038;14.612;2022-09-09T08:33:23;0.60;;;0.60;;
21901;SDS011;11115;46.038;14.612;2022-09-09T08:35:55;1.35;;;0.82;;
21901;SDS011;11115;46.038;14.612;2022-09-09T08:38:32;0.65;;;0.50;;
21901;SDS011;11115;46.038;14.612;2022-09-09T08:50:34;0.60;;;0.60;;
21901;SDS011;11115;46.038;14.612;2022-09-09T08:53:26;0.82;;;0.47;;
21901;SDS011;11115;46.038;14.612;2022-09-09T08:56:16;0.45;;;0.45;;
21901;SDS011;11115;46.038;14.612;2022-09-09T08:59:00;2.25;;;1.42;;
21901;SDS011;11115;46.038;14.612;2022-09-09T09:04:58;1.15;;;0.60;;
21901;SDS011;11115;46.038;14.612;2022-09-09T09:11:15;0.45;;;0.45;;
21901;SDS011;11115;46.038;14.612;2022-09-09T09:14:01;1.17;;;0.60;;
21901;SDS011;11115;46.038;14.612;2022-09-09T09:19:58;1.05;;;0.65;;
21901;SDS011;11115;46.038;14.612;2022-09-09T09:22:43;2.42;;;0.85;;
21901;SDS011;11115;46.038;14.612;2022-09-09T09:25:43;0.32;;;0.32;;
21901;SDS011;11115;46.038;14.612;2022-09-09T09:28:40;0.30;;;0.25;;
21901;SDS011;11115;46.038;14.612;2022-09-09T09:31:17;0.38;;;0.38;;
21901;SDS011;11115;46.038;14.612;2022-09-09T09:33:58;0.20;;;0.15;;
21901;SDS011;11115;46.038;14.612;2022-09-09T09:36:37;0.68;;;0.45;;
21901;SDS011;11115;46.038;14.612;2022-09-09T09:39:30;0.43;;;0.43;;
21901;SDS011;11115;46.038;14.612;2022-09-09T09:42:28;0.40;;;0.40;;
21901;SDS011;11115;46.038;14.612;2022-09-09T09:45:16;0.67;;;0.57;;
21901;SDS011;11115;46.038;14.612;2022-09-09T09:48:12;0.35;;;0.30;;
21901;SDS011;11115;46.038;14.612;2022-09-09T09:51:00;0.20;;;0.20;;
21901;SDS011;11115;46.038;14.612;2022-09-09T09:53:43;0.55;;;0.43;;
21901;SDS011;11115;46.038;14.612;2022-09-09T09:56:13;0.30;;;0.30;;
21901;SDS011;11115;46.038;14.612;2022-09-09T10:01:22;0.52;;;0.38;;
21901;SDS011;11115;46.038;14.612;2022-09-09T10:04:21;1.33;;;0.38;;
21901;SDS011;11115;46.038;14.612;2022-09-09T10:06:58;0.47;;;0.47;;
21901;SDS011;11115;46.038;14.612;2022-09-09T10:09:34;0.35;;;0.35;;
21901;SDS011;11115;46.038;14.612;2022-09-09T10:18:58;0.30;;;0.30;;
21901;SDS011;11115;46.038;14.612;2022-09-09T10:21:55;0.30;;;0.30;;
21901;SDS011;11115;46.038;14.612;2022-09-09T10:28:01;0.88;;;0.25;;
21901;SDS011;11115;46.038;14.612;2022-09-09T10:36:58;0.35;;;0.28;;
21901;SDS011;11115;46.038;14.612;2022-09-09T10:39:37;0.30;;;0.30;;
21901;SDS011;11115;46.038;14.612;2022-09-09T10:42:14;0.60;;;0.50;;
21901;SDS011;11115;46.038;14.612;2022-09-09T10:45:03;0.20;;;0.20;;
21901;SDS011;11115;46.038;14.612;2022-09-09T10:56:35;1.65;;;0.55;;
21901;SDS011;11115;46.038;14.612;2022-09-09T10:59:28;0.40;;;0.40;;
21901;SDS011;11115;46.038;14.612;2022-09-09T11:02:11;0.93;;;0.52;;
21901;SDS011;11115;46.038;14.612;2022-09-09T11:11:09;0.32;;;0.32;;
21901;SDS011;11115;46.038;14.612;2022-09-09T11:13:55;2.00;;;0.90;;
21901;SDS011;11115;46.038;14.612;2022-09-09T11:20:01;0.98;;;0.88;;
21901;SDS011;11115;46.038;14.612;2022-09-09T11:22:39;0.70;;;0.68;;
21901;SDS011;11115;46.038;14.612;2022-09-09T11:25:36;2.65;;;0.70;;
21901;SDS011;11115;46.038;14.612;2022-09-09T11:28:45;0.57;;;0.50;;
21901;SDS011;11115;46.038;14.612;2022-09-09T11:31:44;0.70;;;0.70;;
21901;SDS011;11115;46.038;14.612;2022-09-09T11:40:40;1.90;;;0.63;;
21901;SDS011;11115;46.038;14.612;2022-09-09T11:45:53;0.60;;;0.60;;
21901;SDS011;11115;46.038;14.612;2022-09-09T11:48:36;0.57;;;0.57;;
21901;SDS011;11115;46.038;14.612;2022-09-09T11:53:56;0.65;;;0.55;;
21901;SDS011;11115;46.038;14.612;2022-09-09T11:56:57;3.22;;;0.63;;
21901;SDS011;11115;46.038;14.612;2022-09-09T11:59:33;0.80;;;0.80;;
21901;SDS011;11115;46.038;14.612;2022-09-09T12:02:24;0.93;;;0.35;;
21901;SDS011;11115;46.038;14.612;2022-09-09T12:07:52;0.90;;;0.60;;
21901;SDS011;11115;46.038;14.612;2022-09-09T12:10:39;1.83;;;0.68;;
21901;SDS011;11115;46.038;14.612;2022-09-09T12:13:15;0.60;;;0.60;;
21901;SDS011;11115;46.038;14.612;2022-09-09T12:15:58;1.10;;;1.00;;
21901;SDS011;11115;46.038;14.612;2022-09-09T12:18:32;0.40;;;0.40;;
21901;SDS011;11115;46.038;14.612;2022-09-09T12:21:16;2.15;;;0.70;;
21901;SDS011;11115;46.038;14.612;2022-09-09T12:24:11;0.73;;;0.70;;
21901;SDS011;11115;46.038;14.612;2022-09-09T12:27:40;2.47;;;0.90;;
21901;SDS011;11115;46.038;14.612;2022-09-09T12:30:16;0.50;;;0.50;;
21901;SDS011;11115;46.038;14.612;2022-09-09T12:32:47;1.27;;;1.17;;
21901;SDS011;11115;46.038;14.612;2022-09-09T12:35:48;2.00;;;0.77;;
21901;SDS011;11115;46.038;14.612;2022-09-09T12:38:35;1.95;;;0.57;;
21901;SDS011;11115;46.038;14.612;2022-09-09T12:41:23;4.90;;;1.05;;
21901;SDS011;11115;46.038;14.612;2022-09-09T12:46:47;1.02;;;0.32;;
21901;SDS011;11115;46.038;14.612;2022-09-09T12:49:34;0.90;;;0.50;;
21901;SDS011;11115;46.038;14.612;2022-09-09T12:52:29;0.50;;;0.50;;
21901;SDS011;11115;46.038;14.612;2022-09-09T12:55:18;0.50;;;0.50;;
21901;SDS011;11115;46.038;14.612;2022-09-09T12:57:57;0.70;;;0.38;;
21901;SDS011;11115;46.038;14.612;2022-09-09T13:03:16;0.30;;;0.30;;
21901;SDS011;11115;46.038;14.612;2022-09-09T13:05:49;1.13;;;0.43;;
21901;SDS011;11115;46.038;14.612;2022-09-09T13:08:24;0.40;;;0.40;;
21901;SDS011;11115;46.038;14.612;2022-09-09T13:14:19;0.70;;;0.63;;
21901;SDS011;11115;46.038;14.612;2022-09-09T13:17:48;0.40;;;0.40;;
21901;SDS011;11115;46.038;14.612;2022-09-09T13:20:16;1.00;;;0.50;;
21901;SDS011;11115;46.038;14.612;2022-09-09T13:22:52;0.75;;;0.45;;
21901;SDS011;11115;46.038;14.612;2022-09-09T13:25:31;0.43;;;0.43;;
21901;SDS011;11115;46.038;14.612;2022-09-09T13:28:20;0.68;;;0.47;;
21901;SDS011;11115;46.038;14.612;2022-09-09T13:31:04;0.60;;;0.50;;
21901;SDS011;11115;46.038;14.612;2022-09-09T13:33:48;0.80;;;0.80;;
21901;SDS011;11115;46.038;14.612;2022-09-09T13:36:30;1.60;;;0.73;;
21901;SDS011;11115;46.038;14.612;2022-09-09T13:39:15;0.40;;;0.40;;
21901;SDS011;11115;46.038;14.612;2022-09-09T13:41:52;0.90;;;0.50;;
21901;SDS011;11115;46.038;14.612;2022-09-09T13:44:27;0.90;;;0.68;;
21901;SDS011;11115;46.038;14.612;2022-09-09T13:47:18;0.70;;;0.70;;
21901;SDS011;11115;46.038;14.612;2022-09-09T13:50:52;0.43;;;0.43;;
21901;SDS011;11115;46.038;14.612;2022-09-09T13:52:59;1.33;;;0.80;;
21901;SDS011;11115;46.038;14.612;2022-09-09T13:55:45;0.50;;;0.50;;
21901;SDS011;11115;46.038;14.612;2022-09-09T13:58:19;0.60;;;0.60;;
21901;SDS011;11115;46.038;14.612;2022-09-09T14:00:55;0.82;;;0.50;;
21901;SDS011;11115;46.038;14.612;2022-09-09T14:03:24;0.50;;;0.50;;
21901;SDS011;11115;46.038;14.612;2022-09-09T14:05:55;0.80;;;0.80;;
21901;SDS011;11115;46.038;14.612;2022-09-09T14:08:26;1.43;;;0.70;;
21901;SDS011;11115;46.038;14.612;2022-09-09T14:11:08;0.63;;;0.50;;
21901;SDS011;11115;46.038;14.612;2022-09-09T14:13:43;1.17;;;0.50;;
21901;SDS011;11115;46.038;14.612;2022-09-09T14:16:13;0.83;;;0.60;;
21901;SDS011;11115;46.038;14.612;2022-09-09T14:18:46;0.63;;;0.63;;
21901;SDS011;11115;46.038;14.612;2022-09-09T14:21:17;0.98;;;0.95;;
21901;SDS011;11115;46.038;14.612;2022-09-09T14:23:49;0.68;;;0.47;;
21901;SDS011;11115;46.038;14.612;2022-09-09T14:26:35;0.70;;;0.70;;
21901;SDS011;11115;46.038;14.612;2022-09-09T14:29:11;0.85;;;0.60;;
21901;SDS011;11115;46.038;14.612;2022-09-09T14:32:14;10.77;;;0.70;;
21901;SDS011;11115;46.038;14.612;2022-09-09T14:34:56;0.60;;;0.60;;
21901;SDS011;11115;46.038;14.612;2022-09-09T14:40:02;0.90;;;0.50;;
21901;SDS011;11115;46.038;14.612;2022-09-09T14:42:33;1.35;;;0.98;;
21901;SDS011;11115;46.038;14.612;2022-09-09T14:45:11;0.45;;;0.45;;
21901;SDS011;11115;46.038;14.612;2022-09-09T14:47:55;0.38;;;0.38;;
21901;SDS011;11115;46.038;14.612;2022-09-09T14:50:47;0.38;;;0.38;;
21901;SDS011;11115;46.038;14.612;2022-09-09T14:53:26;0.43;;;0.43;;
21901;SDS011;11115;46.038;14.612;2022-09-09T14:56:09;0.88;;;0.82;;
21901;SDS011;11115;46.038;14.612;2022-09-09T14:58:41;1.13;;;0.63;;
21901;SDS011;11115;46.038;14.612;2022-09-09T15:01:11;2.05;;;0.80;;
21901;SDS011;11115;46.038;14.612;2022-09-09T15:03:50;0.77;;;0.60;;
21901;SDS011;11115;46.038;14.612;2022-09-09T15:06:28;0.85;;;0.75;;
21901;SDS011;11115;46.038;14.612;2022-09-09T15:09:00;0.88;;;0.50;;
21901;SDS011;11115;46.038;14.612;2022-09-09T15:11:33;0.70;;;0.50;;
21901;SDS011;11115;46.038;14.612;2022-09-09T15:14:13;0.60;;;0.50;;
21901;SDS011;11115;46.038;14.612;2022-09-09T15:16:41;0.50;;;0.50;;
21901;SDS011;11115;46.038;14.612;2022-09-09T15:19:23;0.47;;;0.47;;
21901;SDS011;11115;46.038;14.612;2022-09-09T15:21:53;0.40;;;0.40;;
21901;SDS011;11115;46.038;14.612;2022-09-09T15:24:27;0.43;;;0.43;;
21901;SDS011;11115;46.038;14.612;2022-09-09T15:27:01;3.10;;;0.50;;
21901;SDS011;11115;46.038;14.612;2022-09-09T15:29:40;1.48;;;0.50;;
21901;SDS011;11115;46.038;14.612;2022-09-09T15:32:18;0.43;;;0.43;;
21901;SDS011;11115;46.038;14.612;2022-09-09T15:34:58;0.43;;;0.38;;
21901;SDS011;11115;46.038;14.612;2022-09-09T15:37:42;0.60;;;0.60;;
21901;SDS011;11115;46.038;14.612;2022-09-09T15:40:16;0.40;;;0.40;;
21901;SDS011;11115;46.038;14.612;2022-09-09T15:42:52;0.40;;;0.40;;
21901;SDS011;11115;46.038;14.612;2022-09-09T15:45:28;1.42;;;1.05;;
21901;SDS011;11115;46.038;14.612;2022-09-09T15:48:03;0.60;;;0.60;;
21901;SDS011;11115;46.038;14.612;2022-09-09T15:50:40;1.40;;;0.63;;
21901;SDS011;11115;46.038;14.612;2022-09-09T15:53:11;0.40;;;0.40;;
21901;SDS011;11115;46.038;14.612;2022-09-09T15:55:54;0.50;;;0.50;;
21901;SDS011;11115;46.038;14.612;2022-09-09T15:58:30;1.10;;;0.57;;
21901;SDS011;11115;46.038;14.612;2022-09-09T16:01:05;0.60;;;0.60;;
21901;SDS011;11115;46.038;14.612;2022-09-09T16:03:39;1.02;;;0.80;;
21901;SDS011;11115;46.038;14.612;2022-09-09T16:06:18;0.68;;;0.60;;
21901;SDS011;11115;46.038;14.612;2022-09-09T16:08:58;0.60;;;0.50;;
21901;SDS011;11115;46.038;14.612;2022-09-09T16:11:45;0.60;;;0.60;;
21901;SDS011;11115;46.038;14.612;2022-09-09T16:14:17;0.90;;;0.80;;
21901;SDS011;11115;46.038;14.612;2022-09-09T16:16:52;0.82;;;0.40;;
21901;SDS011;11115;46.038;14.612;2022-09-09T16:19:47;0.65;;;0.50;;
21901;SDS011;11115;46.038;14.612;2022-09-09T16:22:32;0.20;;;0.20;;
21901;SDS011;11115;46.038;14.612;2022-09-09T16:25:21;0.52;;;0.52;;
21901;SDS011;11115;46.038;14.612;2022-09-09T16:28:16;0.50;;;0.50;;
21901;SDS011;11115;46.038;14.612;2022-09-09T16:31:14;0.93;;;0.50;;
21901;SDS011;11115;46.038;14.612;2022-09-09T16:34:15;0.40;;;0.40;;
21901;SDS011;11115;46.038;14.612;2022-09-09T16:37:11;0.40;;;0.40;;
21901;SDS011;11115;46.038;14.612;2022-09-09T16:39:59;0.50;;;0.50;;
21901;SDS011;11115;46.038;14.612;2022-09-09T16:42:55;1.52;;;0.73;;
21901;SDS011;11115;46.038;14.612;2022-09-09T16:45:45;0.98;;;0.40;;
21901;SDS011;11115;46.038;14.612;2022-09-09T16:48:43;2.80;;;1.40;;
21901;SDS011;11115;46.038;14.612;2022-09-09T16:51:44;1.02;;;0.80;;
21901;SDS011;11115;46.038;14.612;2022-09-09T16:54:43;4.43;;;0.80;;
21901;SDS011;11115;46.038;14.612;2022-09-09T16:57:33;0.70;;;0.70;;
21901;SDS011;11115;46.038;14.612;2022-09-09T17:00:25;2.00;;;0.80;;
21901;SDS011;11115;46.038;14.612;2022-09-09T17:03:15;0.75;;;0.60;;
21901;SDS011;11115;46.038;14.612;2022-09-09T17:06:03;1.58;;;0.70;;
21901;SDS011;11115;46.038;14.612;2022-09-09T17:09:01;1.50;;;0.70;;
21901;SDS011;11115;46.038;14.612;2022-09-09T17:11:51;1.40;;;0.60;;
21901;SDS011;11115;46.038;14.612;2022-09-09T17:14:41;1.23;;;0.65;;
21901;SDS011;11115;46.038;14.612;2022-09-09T17:17:34;2.38;;;0.80;;
21901;SDS011;11115;46.038;14.612;2022-09-09T17:20:21;1.00;;;0.70;;
21901;SDS011;11115;46.038;14.612;2022-09-09T17:23:16;2.72;;;1.05;;
21901;SDS011;11115;46.038;14.612;2022-09-09T17:26:05;1.95;;;0.77;;
21901;SDS011;11115;46.038;14.612;2022-09-09T17:28:56;0.60;;;0.60;;
21901;SDS011;11115;46.038;14.612;2022-09-09T17:31:43;1.17;;;0.73;;
21901;SDS011;11115;46.038;14.612;2022-09-09T17:34:43;1.20;;;0.85;;
21901;SDS011;11115;46.038;14.612;2022-09-09T17:37:32;2.25;;;0.88;;
21901;SDS011;11115;46.038;14.612;2022-09-09T17:40:20;0.95;;;0.82;;
21901;SDS011;11115;46.038;14.612;2022-09-09T17:43:12;1.63;;;0.98;;
21901;SDS011;11115;46.038;14.612;2022-09-09T17:46:14;1.80;;;0.80;;
21901;SDS011;11115;46.038;14.612;2022-09-09T17:49:19;2.45;;;0.98;;
21901;SDS011;11115;46.038;14.612;2022-09-09T17:52:11;2.13;;;0.70;;
21901;SDS011;11115;46.038;14.612;2022-09-09T17:54:58;1.38;;;0.95;;
21901;SDS011;11115;46.038;14.612;2022-09-09T17:57:46;1.92;;;1.05;;
21901;SDS011;11115;46.038;14.612;2022-09-09T18:00:34;2.90;;;1.23;;
21901;SDS011;11115;46.038;14.612;2022-09-09T18:03:22;1.02;;;0.82;;